createdAt,value
2018-12-01T00:00:36.363Z,15.00
2018-12-01T00:01:36.294Z,13.40
2018-12-01T00:02:36.286Z,13.90
2018-12-01T00:03:36.188Z,14.60
2018-12-01T00:04:38.224Z,15.90
2018-12-01T00:05:37.865Z,14.20
2018-12-01T00:06:37.814Z,15.50
2018-12-01T00:07:37.999Z,14.60
2018-12-01T00:08:38.692Z,15.20
2018-12-01T00:09:35.843Z,13.80
2018-12-01T00:10:35.817Z,20.10
2018-12-01T00:11:35.770Z,19.30
2018-12-01T00:12:35.669Z,36.10
2018-12-01T00:13:35.632Z,15.80
2018-12-01T00:41:52.569Z,97.40
2018-12-01T00:42:51.708Z,101.60
2018-12-01T00:43:51.385Z,58.60
2018-12-01T00:44:51.755Z,72.90
2018-12-01T00:45:52.581Z,77.70
2018-12-01T00:46:51.771Z,106.90
2018-12-01T00:47:52.275Z,79.70
2018-12-01T00:48:51.766Z,104.00
2018-12-01T00:49:51.871Z,112.60
2018-12-01T00:50:53.101Z,113.00
2018-12-01T00:51:51.783Z,100.90
2018-12-01T00:52:49.691Z,71.60
2018-12-01T00:53:49.684Z,95.20
2018-12-01T00:54:49.670Z,85.70
2018-12-01T00:55:49.670Z,160.50
2018-12-01T00:56:49.665Z,80.00
2018-12-01T00:57:51.510Z,109.20
2018-12-01T00:58:49.629Z,60.80
2018-12-01T00:59:49.624Z,67.50
2018-12-01T01:00:49.627Z,86.20
2018-12-01T01:01:51.391Z,80.70
2018-12-01T01:02:51.523Z,97.90
2018-12-01T01:03:49.576Z,71.60
2018-12-01T01:04:49.562Z,99.10
2018-12-01T01:05:49.558Z,98.20
2018-12-01T01:06:49.543Z,82.70
2018-12-01T01:07:49.551Z,165.80
2018-12-01T01:08:49.517Z,97.80
2018-12-01T01:09:49.511Z,89.80
2018-12-01T01:10:49.497Z,97.50
2018-12-01T01:11:49.501Z,73.40
2018-12-01T01:12:49.477Z,117.80
2018-12-01T01:13:49.488Z,70.50
2018-12-01T01:14:49.459Z,67.70
2018-12-01T01:15:49.508Z,137.30
2018-12-01T01:16:49.442Z,77.00
2018-12-01T01:17:49.433Z,117.30
2018-12-01T01:18:49.434Z,79.60
2018-12-01T01:19:49.438Z,110.50
2018-12-01T01:20:49.393Z,75.10
2018-12-01T01:21:49.395Z,62.80
2018-12-01T01:22:49.384Z,81.30
2018-12-01T01:23:49.355Z,102.30
2018-12-01T01:24:49.991Z,86.20
2018-12-01T01:25:49.337Z,81.90
2018-12-01T01:26:49.330Z,67.20
2018-12-01T01:27:49.324Z,93.70
2018-12-01T01:28:49.318Z,73.60
2018-12-01T01:29:49.319Z,99.70
2018-12-01T01:30:49.292Z,113.00
2018-12-01T01:32:42.244Z,70.70
2018-12-01T01:33:42.403Z,71.40
2018-12-01T01:34:43.212Z,59.20
2018-12-01T01:35:42.196Z,71.20
2018-12-01T01:36:42.187Z,71.80
2018-12-01T01:37:42.181Z,73.10
2018-12-01T01:38:42.171Z,74.10
2018-12-01T01:39:42.179Z,64.90
2018-12-01T01:40:42.167Z,75.80
2018-12-01T01:41:42.859Z,62.40
2018-12-01T01:42:42.119Z,80.40
2018-12-01T01:43:42.111Z,64.90
2018-12-01T01:44:42.129Z,102.70
2018-12-01T01:45:42.104Z,79.60
2018-12-01T01:46:42.081Z,71.60
2018-12-01T01:47:42.081Z,64.30
2018-12-01T01:48:42.061Z,61.80
2018-12-01T01:49:42.083Z,80.80
2018-12-01T01:50:42.062Z,77.70
2018-12-01T01:51:42.033Z,95.10
2018-12-01T01:52:42.025Z,97.70
2018-12-01T01:53:42.158Z,60.70
2018-12-01T01:54:41.999Z,69.40
2018-12-01T01:55:43.893Z,59.80
2018-12-01T01:56:44.901Z,57.80
2018-12-01T01:57:44.937Z,89.70
2018-12-01T01:58:41.959Z,61.10
2018-12-01T01:59:41.943Z,62.60
2018-12-01T02:00:41.962Z,59.80
2018-12-01T02:01:41.924Z,66.30
2018-12-01T02:02:41.954Z,97.00
2018-12-01T02:03:41.903Z,69.00
2018-12-01T02:04:41.927Z,61.60
2018-12-01T02:05:41.889Z,99.00
2018-12-01T02:06:41.875Z,69.90
2018-12-01T02:07:41.857Z,73.60
2018-12-01T02:08:41.857Z,89.40
2018-12-01T02:09:41.888Z,89.10
2018-12-01T02:10:41.831Z,83.90
2018-12-01T02:11:41.834Z,57.00
2018-12-01T02:12:41.808Z,64.10
2018-12-01T02:13:41.797Z,71.40
2018-12-01T02:14:41.805Z,61.80
2018-12-01T02:15:41.779Z,63.80
2018-12-01T02:16:41.769Z,83.40
2018-12-01T02:17:41.779Z,67.70
2018-12-01T02:18:41.748Z,89.10
2018-12-01T02:19:41.736Z,72.00
2018-12-01T02:20:42.363Z,72.00
2018-12-01T02:21:42.384Z,69.00
2018-12-01T02:22:41.708Z,70.40
2018-12-01T02:23:41.686Z,74.80
2018-12-01T02:24:43.347Z,72.90
2018-12-01T02:25:46.404Z,66.40
2018-12-01T02:26:42.385Z,65.90
2018-12-01T02:27:42.385Z,80.30
2018-12-01T02:28:41.648Z,77.70
2018-12-01T02:29:41.635Z,76.40
2018-12-01T02:30:41.631Z,104.60
2018-12-01T02:31:41.607Z,97.10
2018-12-01T02:32:41.593Z,80.80
2018-12-01T02:33:41.610Z,76.50
2018-12-01T02:34:41.574Z,81.60
2018-12-01T02:35:41.576Z,80.90
2018-12-01T02:36:41.588Z,89.90
2018-12-01T02:37:41.538Z,69.00
2018-12-01T02:38:41.537Z,69.70
2018-12-01T02:39:41.545Z,74.40
2018-12-01T02:40:41.514Z,88.60
2018-12-01T02:41:41.501Z,81.40
2018-12-01T02:42:41.538Z,75.60
2018-12-01T02:43:41.480Z,73.50
2018-12-01T02:44:42.362Z,63.40
2018-12-01T02:45:41.476Z,71.10
2018-12-01T02:46:41.447Z,76.10
2018-12-01T02:47:41.488Z,62.50
2018-12-01T02:48:41.432Z,62.00
2018-12-01T02:49:41.419Z,69.20
2018-12-01T02:50:41.404Z,65.40
2018-12-01T02:51:41.395Z,67.70
2018-12-01T02:52:41.397Z,68.20
2018-12-01T02:53:42.391Z,67.00
2018-12-01T02:54:42.356Z,69.20
2018-12-01T02:55:42.917Z,75.80
2018-12-01T02:56:41.888Z,73.30
2018-12-01T02:57:42.333Z,77.50
2018-12-01T02:58:41.346Z,73.40
2018-12-01T02:59:41.324Z,79.50
2018-12-01T03:00:41.298Z,75.30
2018-12-01T03:01:41.889Z,74.40
2018-12-01T03:02:41.283Z,75.90
2018-12-01T03:03:41.268Z,67.00
2018-12-01T03:04:41.288Z,68.80
2018-12-01T03:05:41.270Z,74.10
2018-12-01T03:06:41.241Z,81.50
2018-12-01T03:07:41.230Z,82.70
2018-12-01T03:08:41.214Z,89.40
2018-12-01T03:09:41.198Z,91.40
2018-12-01T03:10:41.209Z,94.50
2018-12-01T03:11:41.185Z,83.10
2018-12-01T03:12:41.176Z,83.60
2018-12-01T03:13:41.160Z,80.30
2018-12-01T03:14:41.195Z,78.90
2018-12-01T03:15:41.151Z,70.80
2018-12-01T03:16:41.139Z,68.90
2018-12-01T03:17:41.125Z,76.70
2018-12-01T03:18:43.893Z,73.80
2018-12-01T03:19:41.087Z,73.20
2018-12-01T03:20:41.090Z,74.10
2018-12-01T03:21:41.078Z,73.20
2018-12-01T03:22:41.077Z,69.50
2018-12-01T03:23:41.105Z,77.00
2018-12-01T03:24:41.055Z,76.70
2018-12-01T03:25:41.037Z,73.90
2018-12-01T03:26:41.032Z,79.50
2018-12-01T03:27:41.010Z,75.90
2018-12-01T03:28:41.033Z,72.80
2018-12-01T03:29:41.027Z,72.70
2018-12-01T03:30:40.984Z,74.10
2018-12-01T03:31:40.973Z,76.80
2018-12-01T03:32:40.963Z,71.00
2018-12-01T03:33:40.959Z,68.70
2018-12-01T03:34:40.955Z,67.80
2018-12-01T03:35:40.947Z,73.70
2018-12-01T03:36:40.938Z,71.60
2018-12-01T03:37:40.946Z,76.10
2018-12-01T03:38:40.901Z,77.30
2018-12-01T03:39:40.887Z,78.30
2018-12-01T03:40:40.876Z,72.20
2018-12-01T03:41:40.904Z,81.80
2018-12-01T03:42:40.848Z,74.50
2018-12-01T03:43:40.843Z,75.60
2018-12-01T03:44:40.836Z,69.90
2018-12-01T03:45:40.858Z,73.10
2018-12-01T03:46:40.809Z,69.30
2018-12-01T03:47:40.838Z,69.90
2018-12-01T03:48:41.367Z,70.20
2018-12-01T03:49:40.784Z,71.90
2018-12-01T03:50:40.777Z,72.60
2018-12-01T03:51:40.760Z,73.20
2018-12-01T03:52:40.751Z,74.20
2018-12-01T03:53:42.392Z,71.60
2018-12-01T03:54:40.725Z,72.70
2018-12-01T03:55:40.735Z,80.60
2018-12-01T03:56:40.724Z,75.10
2018-12-01T03:57:40.701Z,69.50
2018-12-01T03:58:40.705Z,66.90
2018-12-01T03:59:40.676Z,74.60
2018-12-01T04:00:40.659Z,77.30
2018-12-01T04:01:40.658Z,77.10
2018-12-01T04:02:40.645Z,75.90
2018-12-01T04:03:40.625Z,79.40
2018-12-01T04:04:40.655Z,72.90
2018-12-01T04:05:40.614Z,76.90
2018-12-01T04:06:40.623Z,71.40
2018-12-01T04:07:40.586Z,67.20
2018-12-01T04:08:40.608Z,68.80
2018-12-01T04:09:40.597Z,68.70
2018-12-01T04:10:40.584Z,68.00
2018-12-01T04:11:40.548Z,63.40
2018-12-01T04:12:40.563Z,62.20
2018-12-01T04:13:40.530Z,71.50
2018-12-01T04:14:40.507Z,71.80
2018-12-01T04:15:40.515Z,75.10
2018-12-01T04:16:40.505Z,75.60
2018-12-01T04:17:40.555Z,71.80
2018-12-01T04:18:40.528Z,72.90
2018-12-01T04:19:40.465Z,71.50
2018-12-01T04:20:41.478Z,73.90
2018-12-01T04:21:40.466Z,61.80
2018-12-01T04:22:40.430Z,63.10
2018-12-01T04:23:40.421Z,66.60
2018-12-01T04:24:41.411Z,69.90
2018-12-01T04:25:40.411Z,74.70
2018-12-01T04:26:40.407Z,64.30
2018-12-01T04:27:40.396Z,70.40
2018-12-01T04:28:40.367Z,71.60
2018-12-01T04:29:40.354Z,69.20
2018-12-01T04:30:40.350Z,69.40
2018-12-01T04:31:40.373Z,68.30
2018-12-01T04:32:40.356Z,69.90
2018-12-01T04:33:40.331Z,63.60
2018-12-01T04:34:40.305Z,70.10
2018-12-01T04:35:40.296Z,72.40
2018-12-01T04:36:40.308Z,67.00
2018-12-01T04:37:40.283Z,68.30
2018-12-01T04:38:42.895Z,70.90
2018-12-01T04:39:40.254Z,67.80
2018-12-01T04:40:40.254Z,63.40
2018-12-01T04:41:40.227Z,62.90
2018-12-01T04:42:40.270Z,63.00
2018-12-01T04:43:40.207Z,66.90
2018-12-01T04:44:40.207Z,65.90
2018-12-01T04:45:40.201Z,64.40
2018-12-01T04:46:40.176Z,62.00
2018-12-01T04:47:40.888Z,69.10
2018-12-01T04:48:40.172Z,66.50
2018-12-01T04:49:40.162Z,67.40
2018-12-01T04:50:40.173Z,63.30
2018-12-01T04:51:40.124Z,66.40
2018-12-01T04:52:40.114Z,67.80
2018-12-01T04:53:40.126Z,67.80
2018-12-01T04:54:40.105Z,75.80
2018-12-01T04:55:40.083Z,69.10
2018-12-01T04:56:40.068Z,73.40
2018-12-01T04:57:40.077Z,73.00
2018-12-01T04:58:40.058Z,71.40
2018-12-01T04:59:40.081Z,69.10
2018-12-01T05:00:40.034Z,70.90
2018-12-01T05:01:40.023Z,71.90
2018-12-01T05:02:40.012Z,73.30
2018-12-01T05:03:39.996Z,73.20
2018-12-01T05:04:40.010Z,74.60
2018-12-01T05:05:39.975Z,78.80
2018-12-01T05:06:39.968Z,75.90
2018-12-01T05:07:39.950Z,79.60
2018-12-01T05:08:39.937Z,79.40
2018-12-01T05:09:39.953Z,81.50
2018-12-01T05:10:39.940Z,77.20
2018-12-01T05:11:39.917Z,80.40
2018-12-01T05:12:39.905Z,72.50
2018-12-01T05:13:39.898Z,80.00
2018-12-01T05:14:39.882Z,78.90
2018-12-01T05:15:39.910Z,80.30
2018-12-01T05:16:39.890Z,73.30
2018-12-01T05:17:39.855Z,75.70
2018-12-01T05:18:39.837Z,76.50
2018-12-01T05:19:39.832Z,78.70
2018-12-01T05:20:39.821Z,76.70
2018-12-01T05:21:39.819Z,76.10
2018-12-01T05:22:39.815Z,74.40
2018-12-01T05:23:39.792Z,77.40
2018-12-01T05:24:40.777Z,78.80
2018-12-01T05:25:39.769Z,75.00
2018-12-01T05:26:39.790Z,74.40
2018-12-01T05:27:39.770Z,80.20
2018-12-01T05:28:39.745Z,76.80
2018-12-01T05:29:40.358Z,77.90
2018-12-01T05:30:39.727Z,77.20
2018-12-01T05:31:39.705Z,77.80
2018-12-01T05:32:39.709Z,76.50
2018-12-01T05:33:39.679Z,75.80
2018-12-01T05:34:39.662Z,77.00
2018-12-01T05:35:39.687Z,73.10
2018-12-01T05:36:39.652Z,75.70
2018-12-01T05:37:39.639Z,77.10
2018-12-01T05:38:39.633Z,77.90
2018-12-01T05:39:39.617Z,75.60
2018-12-01T05:40:39.630Z,74.70
2018-12-01T05:41:39.594Z,75.40
2018-12-01T05:42:39.598Z,76.00
2018-12-01T05:43:39.577Z,73.10
2018-12-01T05:44:39.593Z,70.20
2018-12-01T05:45:39.573Z,70.00
2018-12-01T05:46:39.536Z,72.00
2018-12-01T05:47:39.530Z,70.70
2018-12-01T05:48:39.527Z,72.80
2018-12-01T05:49:39.510Z,71.60
2018-12-01T05:50:39.498Z,75.40
2018-12-01T05:51:39.515Z,72.70
2018-12-01T05:52:39.496Z,72.20
2018-12-01T05:53:39.466Z,72.50
2018-12-01T05:54:39.462Z,71.70
2018-12-01T05:55:39.452Z,71.90
2018-12-01T05:56:39.449Z,70.90
2018-12-01T05:57:39.423Z,69.40
2018-12-01T05:58:39.424Z,71.80
2018-12-01T05:59:39.410Z,75.90
2018-12-01T06:00:39.396Z,72.70
2018-12-01T06:01:39.381Z,73.10
2018-12-01T06:02:39.389Z,70.10
2018-12-01T06:03:39.379Z,76.70
2018-12-01T06:04:39.366Z,75.00
2018-12-01T06:05:39.341Z,71.80
2018-12-01T06:06:39.332Z,75.30
2018-12-01T06:07:39.322Z,70.80
2018-12-01T06:08:39.326Z,72.60
2018-12-01T06:09:39.297Z,74.70
2018-12-01T06:10:39.285Z,75.60
2018-12-01T06:11:39.283Z,74.80
2018-12-01T06:12:39.263Z,76.10
2018-12-01T06:13:39.252Z,78.80
2018-12-01T06:14:39.259Z,70.60
2018-12-01T06:15:39.234Z,76.40
2018-12-01T06:16:39.243Z,70.70
2018-12-01T06:17:39.217Z,71.60
2018-12-01T06:18:39.216Z,73.80
2018-12-01T06:19:39.219Z,72.90
2018-12-01T06:20:39.177Z,73.40
2018-12-01T06:21:39.167Z,73.30
2018-12-01T06:22:39.168Z,76.90
2018-12-01T06:23:39.152Z,71.40
2018-12-01T06:24:40.882Z,75.90
2018-12-01T06:25:40.143Z,72.50
2018-12-01T06:26:39.126Z,73.50
2018-12-01T06:27:39.105Z,76.10
2018-12-01T06:28:39.103Z,74.60
2018-12-01T06:29:39.088Z,74.00
2018-12-01T06:30:39.082Z,71.20
2018-12-01T06:31:39.076Z,70.30
2018-12-01T06:32:39.064Z,70.60
2018-12-01T06:33:39.055Z,71.40
2018-12-01T06:34:39.042Z,73.70
2018-12-01T06:35:39.020Z,69.80
2018-12-01T06:36:39.040Z,70.50
2018-12-01T06:37:39.051Z,70.40
2018-12-01T06:38:39.002Z,68.60
2018-12-01T06:39:39.025Z,63.60
2018-12-01T06:40:38.994Z,67.50
2018-12-01T06:41:38.962Z,66.10
2018-12-01T06:42:38.956Z,70.50
2018-12-01T06:43:38.944Z,68.90
2018-12-01T06:44:38.941Z,67.60
2018-12-01T06:45:38.924Z,63.40
2018-12-01T06:46:38.927Z,64.20
2018-12-01T06:47:38.913Z,64.50
2018-12-01T06:48:38.888Z,63.40
2018-12-01T06:49:38.880Z,68.40
2018-12-01T06:50:39.852Z,67.80
2018-12-01T06:51:38.858Z,63.30
2018-12-01T06:52:38.895Z,67.60
2018-12-01T06:53:38.838Z,66.20
2018-12-01T06:54:38.823Z,66.10
2018-12-01T06:55:38.818Z,65.70
2018-12-01T06:56:38.810Z,64.80
2018-12-01T06:57:38.823Z,66.30
2018-12-01T06:58:38.789Z,66.60
2018-12-01T06:59:38.771Z,66.30
2018-12-01T07:00:38.761Z,70.60
2018-12-01T07:01:38.770Z,69.00
2018-12-01T07:02:41.378Z,64.70
2018-12-01T07:03:38.731Z,66.60
2018-12-01T07:04:38.727Z,65.30
2018-12-01T07:05:38.717Z,64.70
2018-12-01T07:06:38.716Z,65.30
2018-12-01T07:07:38.714Z,65.00
2018-12-01T07:08:39.383Z,65.60
2018-12-01T07:09:38.672Z,64.40
2018-12-01T07:10:38.665Z,66.80
2018-12-01T07:11:38.655Z,65.20
2018-12-01T07:12:38.638Z,65.80
2018-12-01T07:13:38.646Z,63.00
2018-12-01T07:14:38.626Z,64.80
2018-12-01T07:15:38.607Z,64.10
2018-12-01T07:16:38.598Z,62.80
2018-12-01T07:17:38.582Z,67.10
2018-12-01T07:18:38.595Z,64.20
2018-12-01T07:19:38.579Z,66.50
2018-12-01T07:20:38.574Z,64.80
2018-12-01T07:21:38.564Z,65.70
2018-12-01T07:22:38.547Z,64.20
2018-12-01T07:23:38.540Z,69.30
2018-12-01T07:24:38.507Z,64.70
2018-12-01T07:25:38.506Z,63.60
2018-12-01T07:26:38.537Z,67.50
2018-12-01T07:27:38.492Z,67.00
2018-12-01T07:28:38.474Z,66.60
2018-12-01T07:29:38.455Z,65.40
2018-12-01T07:30:38.440Z,66.80
2018-12-01T07:31:39.900Z,66.10
2018-12-01T07:32:38.424Z,66.50
2018-12-01T07:33:38.426Z,62.60
2018-12-01T07:34:38.410Z,64.10
2018-12-01T07:35:38.393Z,63.20
2018-12-01T07:36:38.388Z,66.30
2018-12-01T07:37:38.392Z,62.90
2018-12-01T07:38:38.361Z,64.60
2018-12-01T07:39:38.359Z,63.70
2018-12-01T07:40:38.385Z,68.20
2018-12-01T07:41:38.335Z,65.10
2018-12-01T07:42:38.327Z,63.60
2018-12-01T07:43:38.351Z,76.30
2018-12-01T07:44:38.301Z,73.60
2018-12-01T07:45:38.309Z,66.30
2018-12-01T07:46:38.287Z,63.70
2018-12-01T07:47:38.273Z,62.40
2018-12-01T07:48:38.278Z,63.00
2018-12-01T07:49:38.256Z,62.90
2018-12-01T07:50:38.235Z,61.90
2018-12-01T07:51:38.225Z,60.90
2018-12-01T07:52:38.218Z,68.70
2018-12-01T07:53:38.212Z,61.20
2018-12-01T07:54:38.210Z,63.90
2018-12-01T07:55:38.191Z,67.10
2018-12-01T07:56:38.173Z,74.00
2018-12-01T07:57:38.171Z,65.30
2018-12-01T07:58:38.187Z,73.70
2018-12-01T07:59:38.151Z,65.60
2018-12-01T08:00:38.157Z,81.10
2018-12-01T08:01:38.131Z,72.90
2018-12-01T08:02:38.110Z,68.60
2018-12-01T08:03:38.116Z,64.20
2018-12-01T08:04:38.110Z,63.90
2018-12-01T08:05:38.089Z,63.10
2018-12-01T08:06:38.093Z,62.80
2018-12-01T08:07:38.090Z,63.70
2018-12-01T08:08:38.076Z,63.20
2018-12-01T08:09:39.879Z,63.20
2018-12-01T08:10:38.024Z,59.00
2018-12-01T08:11:38.036Z,60.40
2018-12-01T08:12:38.011Z,61.80
2018-12-01T08:13:38.003Z,64.70
2018-12-01T08:14:37.999Z,59.90
2018-12-01T08:15:37.983Z,60.90
2018-12-01T08:16:37.975Z,61.50
2018-12-01T08:17:37.973Z,61.60
2018-12-01T08:18:37.958Z,65.40
2018-12-01T08:19:37.940Z,62.30
2018-12-01T08:20:37.933Z,61.70
2018-12-01T08:21:37.914Z,65.50
2018-12-01T08:22:37.906Z,60.50
2018-12-01T08:23:37.909Z,63.80
2018-12-01T08:24:37.908Z,61.50
2018-12-01T08:25:37.909Z,60.40
2018-12-01T08:26:38.416Z,58.40
2018-12-01T08:27:37.861Z,55.50
2018-12-01T08:28:37.905Z,57.70
2018-12-01T08:29:37.852Z,58.40
2018-12-01T08:30:37.829Z,55.50
2018-12-01T08:31:37.807Z,57.90
2018-12-01T08:32:37.800Z,57.30
2018-12-01T08:33:37.790Z,59.80
2018-12-01T08:34:37.775Z,60.90
2018-12-01T08:35:37.784Z,57.60
2018-12-01T08:36:37.752Z,60.40
2018-12-01T08:37:37.746Z,58.00
2018-12-01T08:38:37.768Z,57.10
2018-12-01T08:39:37.724Z,57.90
2018-12-01T08:40:40.356Z,60.10
2018-12-01T08:41:37.709Z,68.50
2018-12-01T08:42:37.697Z,59.60
2018-12-01T08:43:37.902Z,57.60
2018-12-01T08:44:37.667Z,58.40
2018-12-01T08:45:37.668Z,62.90
2018-12-01T08:46:39.393Z,59.60
2018-12-01T08:47:37.642Z,60.30
2018-12-01T08:48:37.659Z,60.30
2018-12-01T08:49:37.622Z,60.30
2018-12-01T08:50:38.381Z,62.20
2018-12-01T08:51:37.598Z,59.10
2018-12-01T08:52:37.612Z,58.30
2018-12-01T08:53:37.577Z,57.00
2018-12-01T08:54:37.574Z,54.70
2018-12-01T08:55:37.566Z,56.00
2018-12-01T08:56:37.547Z,55.80
2018-12-01T08:57:37.551Z,55.00
2018-12-01T08:58:37.523Z,53.70
2018-12-01T08:59:37.529Z,56.10
2018-12-01T09:00:37.502Z,53.80
2018-12-01T09:01:37.494Z,55.30
2018-12-01T09:02:37.479Z,57.30
2018-12-01T09:03:37.510Z,50.80
2018-12-01T09:04:37.461Z,53.80
2018-12-01T09:05:37.466Z,52.60
2018-12-01T09:06:37.442Z,53.30
2018-12-01T09:07:37.436Z,54.60
2018-12-01T09:08:37.414Z,51.50
2018-12-01T09:09:37.415Z,50.80
2018-12-01T09:10:37.411Z,51.20
2018-12-01T09:11:37.382Z,53.10
2018-12-01T09:12:37.397Z,50.70
2018-12-01T09:13:37.373Z,53.90
2018-12-01T09:14:37.355Z,49.10
2018-12-01T09:15:37.376Z,47.60
2018-12-01T09:16:37.340Z,48.00
2018-12-01T09:17:37.316Z,48.70
2018-12-01T09:18:37.320Z,46.50
2018-12-01T09:19:37.293Z,45.70
2018-12-01T09:20:37.291Z,43.80
2018-12-01T09:21:37.269Z,46.30
2018-12-01T09:22:37.291Z,42.80
2018-12-01T09:23:38.274Z,44.70
2018-12-01T09:24:37.251Z,45.00
2018-12-01T09:25:37.245Z,45.60
2018-12-01T09:26:37.243Z,43.70
2018-12-01T09:27:37.251Z,40.10
2018-12-01T09:28:37.224Z,42.90
2018-12-01T09:29:37.202Z,43.80
2018-12-01T09:30:37.194Z,44.40
2018-12-01T09:31:37.163Z,44.30
2018-12-01T09:32:37.169Z,43.50
2018-12-01T09:33:37.194Z,44.30
2018-12-01T09:34:37.137Z,44.40
2018-12-01T09:35:37.125Z,41.70
2018-12-01T09:36:37.124Z,43.80
2018-12-01T09:37:37.106Z,41.60
2018-12-01T09:38:37.120Z,43.20
2018-12-01T09:39:37.115Z,40.70
2018-12-01T09:40:37.130Z,42.60
2018-12-01T09:41:38.885Z,43.60
2018-12-01T09:42:37.043Z,42.90
2018-12-01T09:43:37.074Z,42.60
2018-12-01T09:44:43.894Z,39.40
2018-12-01T09:46:31.145Z,37.60
2018-12-01T09:47:28.850Z,39.00
2018-12-01T09:48:28.916Z,39.10
2018-12-01T09:49:29.358Z,40.10
2018-12-01T09:50:30.114Z,40.10
2018-12-01T09:51:32.655Z,39.10
2018-12-01T09:52:31.115Z,40.50
2018-12-01T09:53:28.788Z,40.00
2018-12-01T09:54:29.638Z,40.20
2018-12-01T09:55:30.651Z,40.00
2018-12-01T09:56:28.784Z,41.70
2018-12-01T09:57:28.755Z,43.50
2018-12-01T09:58:30.617Z,44.10
2018-12-01T09:59:30.675Z,43.10
2018-12-01T10:00:30.621Z,43.10
2018-12-01T10:01:31.190Z,43.10
2018-12-01T10:02:31.652Z,44.90
2018-12-01T10:03:31.621Z,46.00
2018-12-01T10:04:30.643Z,45.50
2018-12-01T10:05:31.643Z,46.70
2018-12-01T10:06:32.612Z,47.10
2018-12-01T10:08:22.592Z,40.60
2018-12-01T10:09:23.258Z,40.00
2018-12-01T10:10:22.600Z,42.00
2018-12-01T10:11:22.545Z,46.10
2018-12-01T10:12:22.534Z,48.90
2018-12-01T10:13:23.247Z,37.90
2018-12-01T10:14:22.525Z,38.50
2018-12-01T10:15:23.827Z,39.80
2018-12-01T10:16:22.529Z,37.90
2018-12-01T10:17:22.524Z,36.70
2018-12-01T10:18:24.728Z,40.10
2018-12-01T10:19:22.466Z,38.90
2018-12-01T10:20:22.472Z,37.90
2018-12-01T10:21:23.264Z,39.40
2018-12-01T10:22:23.692Z,40.60
2018-12-01T10:23:22.425Z,39.60
2018-12-01T10:24:25.246Z,41.50
2018-12-01T10:25:22.434Z,36.90
2018-12-01T10:26:23.249Z,38.80
2018-12-01T10:27:23.398Z,38.60
2018-12-01T10:28:22.378Z,35.80
2018-12-01T10:29:22.358Z,35.10
2018-12-01T10:30:22.363Z,36.90
2018-12-01T10:31:22.406Z,38.40
2018-12-01T10:32:24.272Z,40.70
2018-12-01T10:33:23.253Z,45.60
2018-12-01T10:34:22.310Z,41.80
2018-12-01T10:35:22.298Z,40.20
2018-12-01T10:36:24.240Z,39.50
2018-12-01T10:37:23.211Z,37.30
2018-12-01T10:38:24.224Z,36.10
2018-12-01T10:39:23.247Z,34.30
2018-12-01T10:40:23.254Z,37.00
2018-12-01T10:41:22.234Z,35.30
2018-12-01T10:42:22.245Z,35.60
2018-12-01T10:43:22.751Z,35.00
2018-12-01T10:44:22.208Z,34.70
2018-12-01T10:45:22.755Z,34.40
2018-12-01T10:46:22.207Z,35.80
2018-12-01T10:47:22.178Z,35.50
2018-12-01T10:48:23.811Z,36.60
2018-12-01T10:49:22.787Z,34.80
2018-12-01T10:50:22.719Z,36.80
2018-12-01T10:51:26.216Z,33.10
2018-12-01T10:52:22.257Z,32.60
2018-12-01T10:53:22.152Z,36.90
2018-12-01T10:54:22.729Z,36.10
2018-12-01T10:55:22.776Z,35.20
2018-12-01T10:56:22.089Z,35.70
2018-12-01T10:57:22.066Z,35.20
2018-12-01T10:58:22.091Z,35.90
2018-12-01T10:59:24.777Z,35.00
2018-12-01T11:00:22.036Z,33.60
2018-12-01T11:01:22.035Z,35.00
2018-12-01T11:02:22.030Z,34.00
2018-12-01T11:03:22.007Z,32.10
2018-12-01T11:04:22.771Z,35.70
2018-12-01T11:05:24.762Z,33.50
2018-12-01T11:06:23.113Z,36.70
2018-12-01T11:07:22.001Z,34.40
2018-12-01T11:08:22.763Z,34.10
2018-12-01T11:09:22.006Z,35.10
2018-12-01T11:10:21.986Z,33.20
2018-12-01T11:11:21.945Z,34.20
2018-12-01T11:12:22.878Z,34.90
2018-12-01T11:13:22.896Z,33.10
2018-12-01T11:14:22.166Z,34.30
2018-12-01T11:15:21.908Z,32.90
2018-12-01T11:16:21.855Z,35.50
2018-12-01T11:17:21.876Z,33.70
2018-12-01T11:18:21.868Z,33.90
2018-12-01T11:19:21.843Z,33.50
2018-12-01T11:20:22.789Z,36.10
2018-12-01T11:21:22.728Z,35.40
2018-12-01T11:22:21.792Z,33.10
2018-12-01T11:23:21.794Z,31.30
2018-12-01T11:24:22.729Z,37.80
2018-12-01T11:25:24.780Z,35.60
2018-12-01T11:26:21.817Z,42.10
2018-12-01T11:27:21.739Z,37.20
2018-12-01T11:28:22.277Z,39.50
2018-12-01T11:29:22.257Z,36.90
2018-12-01T11:30:21.705Z,33.10
2018-12-01T11:31:21.728Z,34.30
2018-12-01T11:32:22.869Z,35.70
2018-12-01T11:33:21.780Z,37.80
2018-12-01T11:34:21.661Z,38.50
2018-12-01T11:35:21.664Z,34.30
2018-12-01T11:36:23.282Z,37.10
2018-12-01T11:37:22.272Z,35.00
2018-12-01T11:39:13.524Z,36.20
2018-12-01T11:40:15.380Z,36.20
2018-12-01T11:41:15.222Z,32.40
2018-12-01T11:42:13.543Z,35.10
2018-12-01T11:44:05.384Z,33.10
2018-12-01T11:45:05.358Z,33.30
2018-12-01T11:46:05.377Z,35.90
2018-12-01T11:47:05.322Z,33.80
2018-12-01T11:48:05.319Z,31.30
2018-12-01T11:49:07.232Z,35.00
2018-12-01T11:50:05.305Z,34.70
2018-12-01T11:51:06.089Z,37.00
2018-12-01T11:52:06.388Z,35.50
2018-12-01T11:53:06.088Z,32.10
2018-12-01T11:54:06.247Z,32.90
2018-12-01T11:55:05.275Z,32.70
2018-12-01T11:56:06.441Z,42.30
2018-12-01T11:57:05.219Z,33.90
2018-12-01T11:58:05.240Z,45.70
2018-12-01T11:59:07.057Z,34.80
2018-12-01T12:00:05.194Z,33.10
2018-12-01T12:01:07.365Z,33.10
2018-12-01T12:02:05.168Z,52.40
2018-12-01T12:03:05.179Z,46.40
2018-12-01T12:04:05.178Z,42.50
2018-12-01T12:05:06.092Z,45.10
2018-12-01T12:06:06.159Z,32.60
2018-12-01T12:07:05.226Z,34.10
2018-12-01T12:08:05.118Z,34.20
2018-12-01T12:09:05.092Z,34.00
2018-12-01T12:10:05.085Z,33.00
2018-12-01T12:11:06.071Z,41.40
2018-12-01T12:12:05.077Z,46.60
2018-12-01T12:13:05.146Z,49.20
2018-12-01T12:14:05.562Z,38.80
2018-12-01T12:15:06.019Z,68.40
2018-12-01T12:16:06.037Z,37.40
2018-12-01T12:17:05.069Z,44.30
2018-12-01T12:18:05.168Z,36.70
2018-12-01T12:19:05.000Z,37.00
2018-12-01T12:20:05.620Z,44.20
2018-12-01T12:21:05.972Z,54.20
2018-12-01T12:22:05.571Z,38.30
2018-12-01T12:23:06.658Z,41.50
2018-12-01T12:24:07.623Z,53.40
2018-12-01T12:25:07.676Z,35.60
2018-12-01T12:26:07.575Z,43.30
2018-12-01T12:27:06.727Z,43.60
2018-12-01T12:28:04.930Z,40.10
2018-12-01T12:29:06.170Z,39.10
2018-12-01T12:30:06.609Z,44.80
2018-12-01T12:31:05.027Z,39.20
2018-12-01T12:32:06.577Z,47.00
2018-12-01T12:33:05.986Z,38.80
2018-12-01T12:34:10.780Z,50.10
2018-12-01T12:35:06.625Z,37.80
2018-12-01T12:36:04.855Z,38.00
2018-12-01T12:37:06.645Z,44.60
2018-12-01T12:38:06.524Z,37.60
2018-12-01T12:39:04.875Z,34.50
2018-12-01T12:40:05.627Z,34.70
2018-12-01T12:41:04.774Z,48.30
2018-12-01T12:42:04.785Z,45.10
2018-12-01T12:43:05.641Z,37.90
2018-12-01T12:44:04.762Z,45.90
2018-12-01T12:45:07.604Z,50.80
2018-12-01T12:46:04.772Z,37.00
2018-12-01T12:47:04.738Z,52.80
2018-12-01T12:48:06.610Z,37.60
2018-12-01T12:49:04.684Z,52.40
2018-12-01T12:50:05.778Z,53.70
2018-12-01T12:51:04.689Z,47.50
2018-12-01T12:52:04.666Z,41.10
2018-12-01T12:53:04.625Z,36.80
2018-12-01T12:54:04.645Z,58.50
2018-12-01T12:55:04.617Z,51.00
2018-12-01T12:56:04.601Z,60.60
2018-12-01T12:57:05.607Z,41.00
2018-12-01T12:58:04.583Z,39.10
2018-12-01T12:59:05.104Z,45.60
2018-12-01T13:00:05.138Z,43.40
2018-12-01T13:01:04.563Z,47.60
2018-12-01T13:02:04.551Z,46.60
2018-12-01T13:03:05.097Z,38.10
2018-12-01T13:04:04.524Z,43.50
2018-12-01T13:05:04.533Z,50.50
2018-12-01T13:06:04.491Z,44.40
2018-12-01T13:07:05.152Z,34.60
2018-12-01T13:08:08.097Z,38.50
2018-12-01T13:09:04.739Z,53.10
2018-12-01T13:10:04.452Z,46.90
2018-12-01T13:11:04.452Z,45.70
2018-12-01T13:12:04.501Z,42.60
2018-12-01T13:13:04.424Z,44.60
2018-12-01T13:14:04.430Z,39.70
2018-12-01T13:15:04.414Z,40.80
2018-12-01T13:16:04.387Z,40.60
2018-12-01T13:17:04.372Z,43.80
2018-12-01T13:18:06.130Z,41.90
2018-12-01T13:19:04.409Z,34.10
2018-12-01T13:20:05.118Z,37.50
2018-12-01T13:21:05.327Z,42.90
2018-12-01T13:22:04.330Z,36.10
2018-12-01T13:23:05.050Z,40.70
2018-12-01T13:24:04.302Z,37.20